MGGT/GUA METAR and TAF weather

Enter ICAO airport designator
Station Type Date Time Source
MGGT METAR 2022/12/08 12:00 UTC NOAA

MGGT 081200Z 04012KT CAVOK 13/10 Q1023 A3021 FEW080


Station Type Date Time Source
MGGT Decoded METAR 2022/12/08 12:00 UTC NOAA

Guatemala Aeropuertola Aurora , Guatemala (MGGT) 14-35N 090-31W 1489M
Dec 08, 2022 - 07:00 AM EST / 2022.12.08 1200 UTC
Wind: from the NE (040 degrees) at 14 MPH (12 KT):0
Visibility: greater than 7 mile(s):0
Sky conditions: mostly clear
Temperature: 55 F (13 C)
Dew Point: 50 F (10 C)
Relative Humidity: 81%
Pressure (altimeter): 30.21 in. Hg (1023 hPa)
ob: MGGT 081200Z 04012KT CAVOK 13/10 Q1023 A3021 FEW080
cycle: 12

Station Type Date Time Source
MGGT TAF 2022/12/08 06:21 UTC NOAA

TAF TAF MGGT 080500Z 0806/0906 03016KT 9999 SCT016 TX25/0820Z TN13/0812Z
TEMPO 0806/0812 FEW016
BECMG 0814/0816 FEW018
BECMG 0820/0824 SCT18
BECMG 0901/0903 FEW016

Example: see airport list